Time;durP1;ratioP1;P1;durP2;ratioP2;P2;SDS_P1;SDS_P2;PMS_P1;PMS_P2;Temp;Humidity;BMP_temperature;BMP_pressure;BME280_temperature;BME280_humidity;BME280_pressure;Samples;Min_cycle;Max_cycle;Signal;HPM_P1;HPM_P2
2023/06/19 00:01:16;;;;;;;15.05;5.80;;;;;;;;;;5015820;28;20157;-71
2023/06/19 00:03:41;;;;;;;12.18;4.78;;;;;;;;;;5015589;28;20073;-71
2023/06/19 00:06:06;;;;;;;9.45;5.00;;;;;;;;;;5015786;28;20105;-71
2023/06/19 00:08:32;;;;;;;21.08;5.57;;;;;;;;;;5013866;28;20126;-71
2023/06/19 00:10:57;;;;;;;10.63;4.93;;;;;;;;;;5010814;28;20045;-72
2023/06/19 00:13:22;;;;;;;13.85;5.70;;;;;;;;;;5014227;28;20038;-71
2023/06/19 00:15:48;;;;;;;8.80;4.70;;;;;;;;;;5015803;28;20073;-71
2023/06/19 00:18:16;;;;;;;11.70;5.07;;;;;;;;;;5015116;28;20046;-71
2023/06/19 00:20:41;;;;;;;12.15;5.38;;;;;;;;;;5011140;28;20505;-73
2023/06/19 00:23:10;;;;;;;11.30;5.43;;;;;;;;;;5013168;28;20038;-73
2023/06/19 00:25:35;;;;;;;12.43;5.18;;;;;;;;;;5015591;28;20073;-73
2023/06/19 00:28:01;;;;;;;11.50;5.32;;;;;;;;;;5015211;28;20029;-73
2023/06/19 00:30:26;;;;;;;8.85;4.85;;;;;;;;;;5015330;28;20041;-73
2023/06/19 00:32:52;;;;;;;9.45;4.60;;;;;;;;;;5015230;28;20100;-71
2023/06/19 00:35:18;;;;;;;11.07;5.10;;;;;;;;;;5014940;28;20038;-71
2023/06/19 00:37:46;;;;;;;15.43;5.70;;;;;;;;;;5014633;28;20128;-71
2023/06/19 00:40:19;;;;;;;13.70;5.28;;;;;;;;;;5014454;28;20038;-71
2023/06/19 00:42:44;;;;;;;8.98;4.53;;;;;;;;;;5012066;28;20038;-71
2023/06/19 00:45:10;;;;;;;12.23;5.50;;;;;;;;;;5014453;28;20038;-71
2023/06/19 00:47:35;;;;;;;10.15;5.03;;;;;;;;;;5014475;28;20084;-73
2023/06/19 00:50:00;;;;;;;11.88;5.05;;;;;;;;;;5014591;28;20371;-73
2023/06/19 00:52:26;;;;;;;13.05;5.22;;;;;;;;;;5013287;28;20050;-73
2023/06/19 00:54:51;;;;;;;11.05;5.13;;;;;;;;;;5013375;28;20029;-72
2023/06/19 00:57:16;;;;;;;9.75;4.75;;;;;;;;;;5013392;28;20034;-73
2023/06/19 00:59:42;;;;;;;13.48;5.43;;;;;;;;;;5013533;28;20138;-72
2023/06/19 01:02:07;;;;;;;10.68;5.32;;;;;;;;;;5013900;28;20466;-73
2023/06/19 01:04:32;;;;;;;12.88;5.03;;;;;;;;;;5014693;28;20098;-73
2023/06/19 01:07:09;;;;;;;12.20;5.28;;;;;;;;;;5014330;28;20038;-73
2023/06/19 01:09:45;;;;;;;14.55;4.78;;;;;;;;;;5009868;28;20088;-73
2023/06/19 01:12:16;;;;;;;14.95;4.95;;;;;;;;;;5014266;28;20042;-73
2023/06/19 01:14:50;;;;;;;12.02;4.47;;;;;;;;;;5013160;28;20041;-73
2023/06/19 01:17:16;;;;;;;10.75;5.07;;;;;;;;;;5013857;28;20444;-73
2023/06/19 01:19:42;;;;;;;15.98;5.55;;;;;;;;;;5013893;28;20029;-72
2023/06/19 01:22:07;;;;;;;8.95;5.38;;;;;;;;;;5014333;28;20176;-72
2023/06/19 01:24:32;;;;;;;13.38;5.32;;;;;;;;;;5014155;28;20466;-72
2023/06/19 01:26:58;;;;;;;11.65;4.82;;;;;;;;;;5014086;28;20088;-72
2023/06/19 01:29:23;;;;;;;14.55;5.50;;;;;;;;;;5014257;28;20504;-72
2023/06/19 01:31:57;;;;;;;11.40;5.30;;;;;;;;;;5012575;28;20469;-72
2023/06/19 01:34:25;;;;;;;8.45;4.38;;;;;;;;;;5012853;28;20470;-72
2023/06/19 01:36:50;;;;;;;8.65;4.85;;;;;;;;;;5012502;28;20034;-72
2023/06/19 01:39:17;;;;;;;12.18;5.00;;;;;;;;;;5011464;28;20034;-73
2023/06/19 01:41:44;;;;;;;13.15;4.90;;;;;;;;;;5005709;28;20037;-73
2023/06/19 01:44:09;;;;;;;13.65;5.32;;;;;;;;;;5012772;28;20367;-72
2023/06/19 01:46:35;;;;;;;15.10;5.60;;;;;;;;;;5013364;28;20087;-72
2023/06/19 01:49:00;;;;;;;13.25;5.50;;;;;;;;;;5012442;28;20029;-72
2023/06/19 01:51:26;;;;;;;10.23;5.07;;;;;;;;;;5013758;28;20096;-72
2023/06/19 01:53:51;;;;;;;11.38;5.30;;;;;;;;;;5013667;28;20466;-72
2023/06/19 01:56:16;;;;;;;10.13;5.43;;;;;;;;;;5013416;28;20045;-72
2023/06/19 01:58:42;;;;;;;10.75;4.85;;;;;;;;;;5012335;28;20128;-72
2023/06/19 02:01:07;;;;;;;9.98;4.93;;;;;;;;;;5013610;28;20383;-72
2023/06/19 02:03:32;;;;;;;14.40;5.80;;;;;;;;;;5013097;28;20113;-72
2023/06/19 02:05:58;;;;;;;11.48;4.85;;;;;;;;;;5013599;28;20048;-72
2023/06/19 02:08:23;;;;;;;9.32;5.00;;;;;;;;;;5011048;28;20038;-72
2023/06/19 02:10:49;;;;;;;12.85;5.22;;;;;;;;;;5011951;28;20069;-72
2023/06/19 02:13:14;;;;;;;12.15;4.82;;;;;;;;;;5013294;28;20140;-72
2023/06/19 02:15:39;;;;;;;13.13;4.40;;;;;;;;;;5013649;28;20069;-72
2023/06/19 02:18:06;;;;;;;10.32;4.78;;;;;;;;;;5013270;28;20033;-72
2023/06/19 02:20:31;;;;;;;12.40;5.72;;;;;;;;;;5012831;28;20038;-72
2023/06/19 02:22:57;;;;;;;10.60;5.10;;;;;;;;;;5013206;28;20030;-72
2023/06/19 02:25:22;;;;;;;13.73;6.15;;;;;;;;;;5011941;28;20026;-72
2023/06/19 02:27:47;;;;;;;12.63;5.13;;;;;;;;;;5012172;28;20046;-72
2023/06/19 02:30:13;;;;;;;15.57;5.88;;;;;;;;;;5013067;28;20037;-72
2023/06/19 02:32:39;;;;;;;13.82;5.28;;;;;;;;;;5012833;28;20042;-72
2023/06/19 02:35:08;;;;;;;11.13;5.75;;;;;;;;;;5013212;28;20113;-72
2023/06/19 02:37:35;;;;;;;18.55;5.57;;;;;;;;;;5012321;28;20117;-72
2023/06/19 02:40:03;;;;;;;12.85;5.50;;;;;;;;;;5013061;28;20029;-72
2023/06/19 02:42:28;;;;;;;13.52;5.25;;;;;;;;;;5012712;28;20128;-72
2023/06/19 02:44:53;;;;;;;11.30;5.15;;;;;;;;;;5013436;28;20113;-72
2023/06/19 02:47:19;;;;;;;11.43;5.03;;;;;;;;;;5013031;28;20505;-72
2023/06/19 02:49:44;;;;;;;13.38;5.03;;;;;;;;;;5012827;28;20478;-72
2023/06/19 02:52:09;;;;;;;17.55;5.05;;;;;;;;;;5013054;28;20030;-73
2023/06/19 02:54:35;;;;;;;9.05;4.25;;;;;;;;;;5012914;28;20026;-72
2023/06/19 02:57:00;;;;;;;12.95;5.13;;;;;;;;;;5011411;28;20038;-73
2023/06/19 02:59:25;;;;;;;8.82;4.50;;;;;;;;;;5012709;28;20121;-72
2023/06/19 03:01:51;;;;;;;13.90;4.90;;;;;;;;;;5012561;28;20085;-72
2023/06/19 03:04:17;;;;;;;9.73;4.57;;;;;;;;;;5011780;28;20065;-72
2023/06/19 03:06:42;;;;;;;11.30;5.15;;;;;;;;;;5012832;28;20455;-72
2023/06/19 03:09:12;;;;;;;15.88;5.60;;;;;;;;;;5013698;28;20429;-72
2023/06/19 03:11:40;;;;;;;10.02;4.65;;;;;;;;;;5015644;28;20433;-72
2023/06/19 03:14:07;;;;;;;8.60;4.70;;;;;;;;;;5015330;28;20488;-72
2023/06/19 03:16:33;;;;;;;12.00;5.15;;;;;;;;;;5013456;28;20038;-72
2023/06/19 03:18:58;;;;;;;12.48;5.13;;;;;;;;;;5016271;28;20045;-72
2023/06/19 03:21:24;;;;;;;9.73;4.63;;;;;;;;;;5016554;28;20034;-72
2023/06/19 03:23:49;;;;;;;13.68;5.15;;;;;;;;;;5016622;28;20060;-72
2023/06/19 03:26:14;;;;;;;12.52;5.55;;;;;;;;;;5016473;28;20084;-73
2023/06/19 03:28:40;;;;;;;9.80;4.63;;;;;;;;;;5014679;28;20049;-72
2023/06/19 03:31:05;;;;;;;14.00;5.32;;;;;;;;;;5016544;28;20044;-72
2023/06/19 03:33:30;;;;;;;12.48;4.60;;;;;;;;;;5016173;28;20038;-72
2023/06/19 03:35:56;;;;;;;12.70;4.85;;;;;;;;;;5016651;28;20112;-72
2023/06/19 03:38:22;;;;;;;13.77;4.57;;;;;;;;;;5015566;28;20160;-72
2023/06/19 03:40:47;;;;;;;9.07;4.60;;;;;;;;;;5014972;28;20069;-72
2023/06/19 03:43:12;;;;;;;10.77;5.00;;;;;;;;;;5015729;28;20096;-72
2023/06/19 03:45:38;;;;;;;11.52;5.75;;;;;;;;;;5015045;28;20084;-72
2023/06/19 03:48:03;;;;;;;9.77;5.43;;;;;;;;;;5015952;28;20108;-72
2023/06/19 03:50:29;;;;;;;16.25;6.05;;;;;;;;;;5010442;28;20033;-72
2023/06/19 03:52:54;;;;;;;12.07;5.53;;;;;;;;;;5015974;28;20049;-72
2023/06/19 03:55:19;;;;;;;11.02;5.57;;;;;;;;;;5015977;28;20103;-72
2023/06/19 03:57:45;;;;;;;17.08;5.78;;;;;;;;;;5015756;28;20061;-72
2023/06/19 04:00:12;;;;;;;13.10;4.88;;;;;;;;;;5014600;28;20041;-72
2023/06/19 04:02:38;;;;;;;13.60;5.35;;;;;;;;;;5011382;28;20135;-72
2023/06/19 04:05:05;;;;;;;17.77;5.47;;;;;;;;;;5014708;28;20064;-72
2023/06/19 04:07:31;;;;;;;11.43;5.25;;;;;;;;;;5015180;28;20526;-72
2023/06/19 04:09:57;;;;;;;12.07;5.30;;;;;;;;;;5015650;28;20038;-72
2023/06/19 04:12:22;;;;;;;10.98;5.00;;;;;;;;;;5015357;28;20042;-72
2023/06/19 04:14:47;;;;;;;9.10;4.82;;;;;;;;;;5015951;28;20065;-72
2023/06/19 04:17:14;;;;;;;8.45;4.65;;;;;;;;;;5015477;28;20042;-72
2023/06/19 04:19:39;;;;;;;8.32;4.82;;;;;;;;;;5011458;28;20379;-72
2023/06/19 04:22:05;;;;;;;11.57;4.93;;;;;;;;;;5010182;28;20041;-72
2023/06/19 04:24:30;;;;;;;9.25;4.53;;;;;;;;;;5014411;28;20479;-72
2023/06/19 04:26:55;;;;;;;10.60;5.45;;;;;;;;;;5015229;28;20104;-72
2023/06/19 04:29:21;;;;;;;10.00;4.82;;;;;;;;;;5011083;28;20114;-72
2023/06/19 04:31:49;;;;;;;13.50;5.57;;;;;;;;;;5011844;28;20049;-72
2023/06/19 04:34:21;;;;;;;9.27;4.70;;;;;;;;;;5011557;28;20032;-72
2023/06/19 04:36:47;;;;;;;10.05;4.85;;;;;;;;;;5015048;28;20045;-72
2023/06/19 04:39:12;;;;;;;11.20;4.97;;;;;;;;;;5013575;28;20049;-72
2023/06/19 04:41:38;;;;;;;12.10;4.75;;;;;;;;;;5014845;28;20390;-72
2023/06/19 04:44:04;;;;;;;13.15;4.93;;;;;;;;;;5014190;28;20393;-72
2023/06/19 04:46:30;;;;;;;11.55;4.38;;;;;;;;;;5015026;28;20033;-72
2023/06/19 04:48:55;;;;;;;8.20;4.45;;;;;;;;;;5014702;28;20065;-72
2023/06/19 04:51:21;;;;;;;8.30;4.68;;;;;;;;;;5010109;28;20030;-72
2023/06/19 04:53:47;;;;;;;11.02;5.25;;;;;;;;;;5013452;28;20381;-72
2023/06/19 04:56:12;;;;;;;11.95;5.78;;;;;;;;;;5014523;28;20542;-72
2023/06/19 04:58:45;;;;;;;10.43;5.20;;;;;;;;;;5012529;28;20133;-72
2023/06/19 05:01:13;;;;;;;10.98;5.30;;;;;;;;;;5014575;28;20394;-72
2023/06/19 05:03:39;;;;;;;10.05;5.35;;;;;;;;;;5014386;28;20037;-72
2023/06/19 05:06:05;;;;;;;14.48;5.47;;;;;;;;;;5014312;28;20478;-72
2023/06/19 05:08:30;;;;;;;14.02;5.25;;;;;;;;;;5013861;28;20113;-72
2023/06/19 05:10:57;;;;;;;10.20;5.50;;;;;;;;;;5014776;28;20034;-72
2023/06/19 05:13:23;;;;;;;7.90;5.07;;;;;;;;;;5013384;28;20393;-72
2023/06/19 05:15:48;;;;;;;12.38;5.15;;;;;;;;;;5014758;28;20029;-72
2023/06/19 05:18:14;;;;;;;7.93;4.80;;;;;;;;;;5014255;28;20026;-72
2023/06/19 05:20:39;;;;;;;8.52;4.93;;;;;;;;;;5007826;28;20049;-72
2023/06/19 05:23:04;;;;;;;9.68;5.28;;;;;;;;;;5011430;28;20033;-72
2023/06/19 05:25:30;;;;;;;11.25;5.25;;;;;;;;;;5014604;28;20113;-73
2023/06/19 05:27:56;;;;;;;9.63;5.18;;;;;;;;;;5013974;28;20169;-72
2023/06/19 05:30:21;;;;;;;8.15;4.57;;;;;;;;;;5012334;28;20045;-72
2023/06/19 05:32:46;;;;;;;7.63;4.40;;;;;;;;;;5013695;28;20470;-72
2023/06/19 05:35:12;;;;;;;6.28;4.50;;;;;;;;;;5012178;28;20046;-73
2023/06/19 05:37:38;;;;;;;7.45;4.00;;;;;;;;;;5013533;28;20030;-73
2023/06/19 05:40:05;;;;;;;6.10;4.07;;;;;;;;;;5014234;28;20044;-72
2023/06/19 05:42:31;;;;;;;12.75;4.72;;;;;;;;;;5013114;28;20034;-72
2023/06/19 05:44:56;;;;;;;9.52;3.88;;;;;;;;;;5014110;28;20034;-72
2023/06/19 05:47:25;;;;;;;8.43;3.60;;;;;;;;;;5013696;28;20386;-72
2023/06/19 05:49:50;;;;;;;9.75;5.55;;;;;;;;;;5013652;28;20038;-72
2023/06/19 05:52:16;;;;;;;9.32;4.78;;;;;;;;;;5005264;28;20041;-72
2023/06/19 05:54:41;;;;;;;6.45;4.38;;;;;;;;;;5014044;28;20030;-72
2023/06/19 05:57:06;;;;;;;8.27;4.20;;;;;;;;;;5013638;28;20092;-72
2023/06/19 05:59:32;;;;;;;9.10;3.95;;;;;;;;;;5007221;28;20088;-72
2023/06/19 06:01:57;;;;;;;8.85;4.53;;;;;;;;;;5012355;28;20428;-72
2023/06/19 06:04:22;;;;;;;6.18;4.15;;;;;;;;;;5010407;28;20037;-72
2023/06/19 06:06:48;;;;;;;8.52;4.30;;;;;;;;;;5013415;28;20153;-73
2023/06/19 06:09:14;;;;;;;10.18;3.92;;;;;;;;;;5012066;28;20057;-73
2023/06/19 06:11:40;;;;;;;8.80;4.55;;;;;;;;;;5013323;28;20120;-73
2023/06/19 06:14:05;;;;;;;9.80;4.47;;;;;;;;;;5010630;28;20172;-73
2023/06/19 06:16:30;;;;;;;9.95;4.28;;;;;;;;;;5013292;28;20037;-72
2023/06/19 06:18:56;;;;;;;9.63;5.55;;;;;;;;;;5013543;28;20048;-73
2023/06/19 06:21:21;;;;;;;9.68;4.32;;;;;;;;;;5013385;28;20127;-72
2023/06/19 06:23:47;;;;;;;11.13;4.35;;;;;;;;;;5013649;28;20084;-73
2023/06/19 06:26:13;;;;;;;10.07;5.15;;;;;;;;;;5018933;28;20030;-72
2023/06/19 06:28:39;;;;;;;9.73;4.40;;;;;;;;;;5013455;28;20072;-73
2023/06/19 06:31:04;;;;;;;10.35;4.45;;;;;;;;;;5013457;28;20034;-73
2023/06/19 06:33:29;;;;;;;10.35;4.45;;;;;;;;;;5013300;28;20474;-73
2023/06/19 06:35:55;;;;;;;9.98;4.47;;;;;;;;;;5012137;28;20089;-73
2023/06/19 06:38:20;;;;;;;6.82;4.60;;;;;;;;;;5013442;28;20502;-72
2023/06/19 06:40:46;;;;;;;10.70;4.75;;;;;;;;;;5013391;28;20045;-73
2023/06/19 06:43:12;;;;;;;14.75;5.28;;;;;;;;;;5013736;28;20022;-73
2023/06/19 06:45:42;;;;;;;8.73;5.70;;;;;;;;;;5017017;28;20066;-72
2023/06/19 06:48:07;;;;;;;8.32;4.32;;;;;;;;;;5013357;28;20061;-73
2023/06/19 06:50:33;;;;;;;10.93;5.70;;;;;;;;;;5015717;28;20080;-72
2023/06/19 06:52:58;;;;;;;13.68;5.55;;;;;;;;;;5016832;28;20415;-72
2023/06/19 06:55:23;;;;;;;10.27;6.10;;;;;;;;;;5015454;28;20038;-72
2023/06/19 06:57:49;;;;;;;13.68;6.28;;;;;;;;;;5016886;28;20096;-72
2023/06/19 07:00:14;;;;;;;14.60;5.97;;;;;;;;;;5012738;28;20033;-72
2023/06/19 07:02:40;;;;;;;16.50;6.93;;;;;;;;;;5015716;28;20490;-72
2023/06/19 07:05:07;;;;;;;13.48;5.82;;;;;;;;;;5015565;28;20478;-72
2023/06/19 07:07:32;;;;;;;14.60;5.93;;;;;;;;;;5015663;28;20038;-72
2023/06/19 07:09:58;;;;;;;8.80;5.07;;;;;;;;;;5016929;28;20048;-72
2023/06/19 07:12:23;;;;;;;10.35;5.50;;;;;;;;;;5016632;28;20401;-72
2023/06/19 07:14:48;;;;;;;10.77;5.07;;;;;;;;;;5008663;28;20034;-72
2023/06/19 07:17:14;;;;;;;7.85;4.70;;;;;;;;;;5016316;28;20652;-72
2023/06/19 07:19:39;;;;;;;7.93;4.10;;;;;;;;;;5015535;28;20109;-72
2023/06/19 07:22:05;;;;;;;6.85;3.75;;;;;;;;;;5016335;28;20056;-73
2023/06/19 07:24:30;;;;;;;11.23;4.32;;;;;;;;;;5011179;28;20493;-72
2023/06/19 07:26:56;;;;;;;10.82;4.70;;;;;;;;;;5016322;28;20045;-72
2023/06/19 07:29:22;;;;;;;9.25;4.57;;;;;;;;;;5015061;28;20044;-71
2023/06/19 07:31:47;;;;;;;11.30;3.90;;;;;;;;;;5015815;28;20046;-71
2023/06/19 07:34:13;;;;;;;10.88;4.10;;;;;;;;;;5015858;28;20030;-72
2023/06/19 07:36:39;;;;;;;6.53;3.38;;;;;;;;;;5014752;28;20479;-71
2023/06/19 07:39:04;;;;;;;6.85;3.55;;;;;;;;;;5005362;28;20044;-70
2023/06/19 07:41:30;;;;;;;7.90;3.50;;;;;;;;;;5013746;28;20079;-70
2023/06/19 07:43:55;;;;;;;8.20;3.65;;;;;;;;;;5013770;28;20044;-70
2023/06/19 07:46:20;;;;;;;10.07;3.80;;;;;;;;;;5013418;28;20049;-70
2023/06/19 07:48:46;;;;;;;5.70;3.20;;;;;;;;;;5006639;28;20038;-70
2023/06/19 07:51:11;;;;;;;8.63;3.40;;;;;;;;;;5013750;28;20038;-71
2023/06/19 07:53:37;;;;;;;8.50;2.83;;;;;;;;;;5014286;28;20042;-71
2023/06/19 07:56:03;;;;;;;5.38;2.95;;;;;;;;;;5014531;28;20038;-71
2023/06/19 07:58:29;;;;;;;7.75;2.92;;;;;;;;;;5014211;28;20049;-70
2023/06/19 08:00:54;;;;;;;8.70;3.22;;;;;;;;;;5014926;28;20101;-71
2023/06/19 08:03:22;;;;;;;6.43;3.05;;;;;;;;;;5014005;28;20096;-70
2023/06/19 08:05:47;;;;;;;8.13;2.92;;;;;;;;;;5015787;28;20022;-71
2023/06/19 08:08:13;;;;;;;6.85;2.83;;;;;;;;;;5014014;28;20441;-70
2023/06/19 08:10:39;;;;;;;5.50;2.70;;;;;;;;;;5006814;28;20042;-71
2023/06/19 08:13:04;;;;;;;7.28;3.00;;;;;;;;;;4986789;28;21565;-70
2023/06/19 08:15:29;;;;;;;4.43;2.40;;;;;;;;;;4994905;28;20038;-70
2023/06/19 08:17:55;;;;;;;4.82;2.58;;;;;;;;;;5010371;28;20038;-71
2023/06/19 08:20:21;;;;;;;4.82;2.50;;;;;;;;;;5011612;28;20038;-71
2023/06/19 08:22:46;;;;;;;7.07;2.88;;;;;;;;;;5009643;28;20389;-71
2023/06/19 08:25:12;;;;;;;7.35;2.83;;;;;;;;;;5011750;28;20105;-71
2023/06/19 08:27:37;;;;;;;6.07;2.80;;;;;;;;;;4998241;28;20043;-71
2023/06/19 08:30:03;;;;;;;6.63;3.03;;;;;;;;;;5006708;28;20038;-70
2023/06/19 08:32:28;;;;;;;7.05;3.00;;;;;;;;;;5010160;28;20034;-70
2023/06/19 08:34:54;;;;;;;4.95;2.45;;;;;;;;;;5001221;28;20437;-71
2023/06/19 08:37:19;;;;;;;7.32;2.65;;;;;;;;;;5008576;28;20084;-70
2023/06/19 08:39:44;;;;;;;6.30;2.88;;;;;;;;;;5009222;28;20394;-71
2023/06/19 08:42:10;;;;;;;6.53;2.80;;;;;;;;;;5008403;28;20057;-71
2023/06/19 08:44:36;;;;;;;8.32;2.90;;;;;;;;;;5008710;28;20038;-71
2023/06/19 08:47:03;;;;;;;5.22;2.30;;;;;;;;;;5007947;28;20038;-71
2023/06/19 08:49:34;;;;;;;4.03;2.35;;;;;;;;;;5001363;28;20030;-71
2023/06/19 08:52:01;;;;;;;5.97;2.22;;;;;;;;;;5011348;28;20037;-71
2023/06/19 08:54:27;;;;;;;5.32;2.38;;;;;;;;;;5009154;28;20508;-70
2023/06/19 08:56:53;;;;;;;7.00;2.60;;;;;;;;;;5010011;28;20038;-70
2023/06/19 08:59:20;;;;;;;5.88;2.55;;;;;;;;;;5009287;28;20057;-70
2023/06/19 09:01:52;;;;;;;4.95;2.60;;;;;;;;;;5009013;28;20033;-71
2023/06/19 09:04:20;;;;;;;7.13;2.65;;;;;;;;;;5007463;28;20043;-71
2023/06/19 09:06:49;;;;;;;6.32;2.53;;;;;;;;;;5007316;28;20052;-71
2023/06/19 09:09:15;;;;;;;5.70;2.60;;;;;;;;;;5008638;28;20033;-71
2023/06/19 09:11:43;;;;;;;5.85;2.72;;;;;;;;;;5010568;28;20029;-71
2023/06/19 09:14:10;;;;;;;5.60;2.42;;;;;;;;;;5010153;28;20624;-71
2023/06/19 09:16:40;;;;;;;4.40;2.08;;;;;;;;;;5008594;28;20296;-71
2023/06/19 09:19:06;;;;;;;5.30;1.98;;;;;;;;;;5007913;28;20069;-71
2023/06/19 09:21:36;;;;;;;6.10;2.30;;;;;;;;;;5008971;28;20091;-71
2023/06/19 09:24:07;;;;;;;6.78;2.25;;;;;;;;;;5004950;28;20108;-71
2023/06/19 09:26:33;;;;;;;6.90;1.98;;;;;;;;;;5009588;28;20060;-70
2023/06/19 09:29:10;;;;;;;5.63;2.00;;;;;;;;;;5004486;28;20037;-70
2023/06/19 09:31:37;;;;;;;4.53;2.13;;;;;;;;;;4993716;28;20027;-71
2023/06/19 09:34:02;;;;;;;5.32;2.55;;;;;;;;;;5008129;28;20042;-71
2023/06/19 09:36:29;;;;;;;6.03;2.40;;;;;;;;;;5007503;28;20042;-71
2023/06/19 09:38:55;;;;;;;5.78;2.58;;;;;;;;;;5000453;28;20037;-71
2023/06/19 09:41:21;;;;;;;3.67;2.28;;;;;;;;;;5007583;28;20120;-71
2023/06/19 09:43:47;;;;;;;4.88;2.13;;;;;;;;;;5006918;28;20045;-71
2023/06/19 09:46:14;;;;;;;4.18;2.13;;;;;;;;;;5006572;28;20565;-71
2023/06/19 09:48:44;;;;;;;8.70;2.38;;;;;;;;;;5005692;28;20037;-70
2023/06/19 09:51:18;;;;;;;3.90;1.83;;;;;;;;;;5007915;28;20106;-71
2023/06/19 09:53:48;;;;;;;4.85;1.90;;;;;;;;;;5007617;28;20056;-71
2023/06/19 09:56:14;;;;;;;4.30;1.75;;;;;;;;;;5005167;28;20038;-71
2023/06/19 09:58:42;;;;;;;3.75;2.38;;;;;;;;;;5009319;28;20061;-71
2023/06/19 10:01:07;;;;;;;4.43;2.10;;;;;;;;;;5008342;28;20117;-71
2023/06/19 10:03:34;;;;;;;3.97;2.10;;;;;;;;;;5009126;28;21036;-71
2023/06/19 10:06:00;;;;;;;3.40;1.92;;;;;;;;;;5008767;28;20430;-71
2023/06/19 10:08:31;;;;;;;5.93;2.13;;;;;;;;;;5009077;28;20081;-71
2023/06/19 10:10:59;;;;;;;4.50;2.00;;;;;;;;;;5008292;28;20400;-71
2023/06/19 10:13:32;;;;;;;5.97;2.13;;;;;;;;;;5008971;28;20433;-70
2023/06/19 10:15:57;;;;;;;3.65;1.75;;;;;;;;;;5005183;28;20077;-71
2023/06/19 10:18:25;;;;;;;3.33;1.90;;;;;;;;;;5004461;28;20113;-71
2023/06/19 10:20:50;;;;;;;5.30;2.17;;;;;;;;;;5008076;28;20030;-71
2023/06/19 10:23:18;;;;;;;4.88;1.95;;;;;;;;;;5008440;28;20049;-71
2023/06/19 10:25:45;;;;;;;4.95;2.03;;;;;;;;;;5007819;28;20037;-71
2023/06/19 10:28:17;;;;;;;4.53;2.15;;;;;;;;;;5009733;28;20533;-70
2023/06/19 10:30:42;;;;;;;4.80;2.10;;;;;;;;;;5009704;28;20095;-71
2023/06/19 10:33:08;;;;;;;5.00;2.13;;;;;;;;;;5008971;28;20025;-70
2023/06/19 10:35:40;;;;;;;4.68;1.90;;;;;;;;;;5009658;28;20101;-70
2023/06/19 10:38:06;;;;;;;7.05;1.92;;;;;;;;;;5008448;28;20433;-71
2023/06/19 10:40:32;;;;;;;6.55;3.00;;;;;;;;;;5008476;28;20437;-70
2023/06/19 10:42:57;;;;;;;4.53;2.38;;;;;;;;;;5008277;28;20122;-71
2023/06/19 10:45:28;;;;;;;7.70;2.28;;;;;;;;;;5007767;28;20046;-71
2023/06/19 10:47:54;;;;;;;4.72;2.00;;;;;;;;;;4993295;28;20060;-70
2023/06/19 10:50:19;;;;;;;5.13;2.10;;;;;;;;;;5009744;28;20069;-70
2023/06/19 10:52:45;;;;;;;5.63;2.38;;;;;;;;;;4998396;28;20076;-70
2023/06/19 10:55:12;;;;;;;4.95;2.00;;;;;;;;;;5006776;28;20438;-71
2023/06/19 10:57:40;;;;;;;6.70;2.05;;;;;;;;;;5008940;28;20045;-72
2023/06/19 11:00:12;;;;;;;4.18;2.03;;;;;;;;;;5007383;28;20034;-72
2023/06/19 11:02:43;;;;;;;7.45;2.15;;;;;;;;;;5008141;28;20026;-72
2023/06/19 11:05:12;;;;;;;5.93;2.10;;;;;;;;;;5009084;28;20034;-72
2023/06/19 11:07:37;;;;;;;7.60;2.00;;;;;;;;;;5008039;28;20459;-73
2023/06/19 11:10:04;;;;;;;5.00;2.22;;;;;;;;;;5007079;28;20109;-72
2023/06/19 11:12:31;;;;;;;6.55;2.00;;;;;;;;;;5008750;28;20038;-72
2023/06/19 11:14:56;;;;;;;9.18;2.08;;;;;;;;;;5007261;28;20053;-72
2023/06/19 11:17:22;;;;;;;7.18;2.05;;;;;;;;;;5001539;28;20026;-72
2023/06/19 11:19:47;;;;;;;6.32;2.10;;;;;;;;;;4986840;28;20037;-72
2023/06/19 11:22:13;;;;;;;4.97;2.10;;;;;;;;;;4990718;28;20451;-72
2023/06/19 11:24:48;;;;;;;6.28;2.08;;;;;;;;;;5007415;28;20046;-72
2023/06/19 11:27:18;;;;;;;5.15;2.15;;;;;;;;;;5002531;28;20363;-72
2023/06/19 11:29:44;;;;;;;5.10;1.77;;;;;;;;;;5006921;28;20034;-72
2023/06/19 11:32:14;;;;;;;5.78;2.20;;;;;;;;;;5006936;28;20069;-72
2023/06/19 11:34:40;;;;;;;6.57;2.03;;;;;;;;;;5010919;28;20385;-72
2023/06/19 11:37:12;;;;;;;5.82;1.65;;;;;;;;;;5011545;28;20026;-72
2023/06/19 11:39:37;;;;;;;5.07;1.90;;;;;;;;;;5011494;28;20042;-73
2023/06/19 11:42:03;;;;;;;5.95;2.00;;;;;;;;;;5009877;28;20117;-72
2023/06/19 11:44:28;;;;;;;7.53;1.98;;;;;;;;;;5011606;28;20037;-73
2023/06/19 11:46:57;;;;;;;4.70;2.15;;;;;;;;;;5007335;28;20103;-72
2023/06/19 11:49:22;;;;;;;3.63;1.80;;;;;;;;;;5011394;28;20034;-72
2023/06/19 11:51:48;;;;;;;5.85;2.42;;;;;;;;;;5008403;28;20026;-72
2023/06/19 11:54:17;;;;;;;4.90;2.05;;;;;;;;;;5010326;28;20046;-72
2023/06/19 11:56:43;;;;;;;6.43;2.22;;;;;;;;;;5009983;28;20042;-72
2023/06/19 11:59:09;;;;;;;6.32;1.95;;;;;;;;;;5011629;28;20090;-72
2023/06/19 12:01:35;;;;;;;6.60;2.40;;;;;;;;;;5010098;28;20065;-73
2023/06/19 12:04:01;;;;;;;6.75;2.00;;;;;;;;;;5009889;28;20038;-72
2023/06/19 12:06:27;;;;;;;5.18;1.70;;;;;;;;;;5003587;28;20097;-72
2023/06/19 12:08:53;;;;;;;4.70;1.80;;;;;;;;;;5012198;28;20121;-72
2023/06/19 12:11:18;;;;;;;4.80;1.80;;;;;;;;;;5009217;28;20133;-73
2023/06/19 12:13:44;;;;;;;3.10;1.65;;;;;;;;;;5011692;28;20037;-73
2023/06/19 12:16:13;;;;;;;4.78;1.90;;;;;;;;;;5003543;28;20442;-72
2023/06/19 12:18:38;;;;;;;5.10;2.38;;;;;;;;;;5010642;28;20040;-72
2023/06/19 12:21:04;;;;;;;6.25;1.88;;;;;;;;;;5011294;28;20040;-72
2023/06/19 12:23:29;;;;;;;5.72;1.80;;;;;;;;;;4999081;28;20068;-73
2023/06/19 12:25:55;;;;;;;8.32;2.40;;;;;;;;;;4999182;28;20122;-73
2023/06/19 12:28:21;;;;;;;6.32;1.90;;;;;;;;;;5011256;28;20037;-72
2023/06/19 12:30:48;;;;;;;5.38;2.00;;;;;;;;;;5010289;28;20569;-72
2023/06/19 12:33:13;;;;;;;6.60;2.25;;;;;;;;;;5011163;28;20107;-72
2023/06/19 12:35:41;;;;;;;5.47;1.52;;;;;;;;;;5012393;28;20446;-72
2023/06/19 12:38:06;;;;;;;3.97;1.70;;;;;;;;;;5009684;28;20042;-72
2023/06/19 12:40:32;;;;;;;4.63;1.80;;;;;;;;;;5001321;28;20096;-72
2023/06/19 12:42:57;;;;;;;6.65;2.00;;;;;;;;;;4997564;28;20029;-72
2023/06/19 12:45:22;;;;;;;6.53;1.73;;;;;;;;;;5004118;28;20453;-71
2023/06/19 12:47:48;;;;;;;8.10;2.05;;;;;;;;;;5008175;28;20045;-71
2023/06/19 12:50:13;;;;;;;4.85;2.03;;;;;;;;;;5001187;28;20038;-71
2023/06/19 12:52:38;;;;;;;4.38;1.92;;;;;;;;;;5005073;28;20038;-72
2023/06/19 12:55:04;;;;;;;5.60;2.10;;;;;;;;;;4998678;28;20045;-72
2023/06/19 12:57:29;;;;;;;6.10;1.77;;;;;;;;;;5002274;28;20038;-72
2023/06/19 12:59:55;;;;;;;4.22;1.95;;;;;;;;;;5004365;28;20034;-72
2023/06/19 13:02:20;;;;;;;7.07;2.10;;;;;;;;;;5007417;28;20061;-72
2023/06/19 13:04:46;;;;;;;5.05;1.90;;;;;;;;;;5011114;28;20025;-72
2023/06/19 13:07:12;;;;;;;9.48;2.10;;;;;;;;;;5009722;28;20030;-72
2023/06/19 13:09:37;;;;;;;3.97;1.98;;;;;;;;;;5011133;28;20045;-72
2023/06/19 13:12:03;;;;;;;3.88;1.95;;;;;;;;;;5005700;28;20033;-72
2023/06/19 13:14:28;;;;;;;4.65;1.80;;;;;;;;;;5010079;28;20117;-72
2023/06/19 13:16:54;;;;;;;4.55;1.58;;;;;;;;;;5008856;28;20532;-72
2023/06/19 13:19:19;;;;;;;5.78;1.70;;;;;;;;;;5011169;28;20505;-72
2023/06/19 13:21:45;;;;;;;5.38;1.80;;;;;;;;;;5008957;28;20041;-72
2023/06/19 13:24:10;;;;;;;4.97;2.17;;;;;;;;;;5010659;28;20116;-72
2023/06/19 13:26:36;;;;;;;4.78;2.53;;;;;;;;;;5011059;28;20239;-72
2023/06/19 13:29:01;;;;;;;4.63;2.00;;;;;;;;;;5001069;28;20050;-72
2023/06/19 13:31:26;;;;;;;5.45;2.10;;;;;;;;;;5008346;28;20042;-72
2023/06/19 13:33:52;;;;;;;5.75;2.08;;;;;;;;;;5009945;28;20037;-72
2023/06/19 13:36:19;;;;;;;10.18;2.08;;;;;;;;;;5006130;28;20490;-72
2023/06/19 13:38:44;;;;;;;6.95;2.00;;;;;;;;;;5009609;28;20449;-72
2023/06/19 13:41:10;;;;;;;5.60;1.75;;;;;;;;;;5010889;28;20042;-71
2023/06/19 13:43:35;;;;;;;4.93;1.83;;;;;;;;;;5009509;28;20095;-71
2023/06/19 13:46:03;;;;;;;6.07;1.83;;;;;;;;;;5009843;28;20087;-71
2023/06/19 13:48:28;;;;;;;4.55;1.88;;;;;;;;;;5009259;28;20030;-71
2023/06/19 13:50:53;;;;;;;5.68;1.90;;;;;;;;;;5009788;28;20593;-71
2023/06/19 13:53:20;;;;;;;4.85;1.92;;;;;;;;;;5009750;28;20045;-71
2023/06/19 13:55:46;;;;;;;8.18;1.98;;;;;;;;;;5009628;28;20095;-71
2023/06/19 13:58:12;;;;;;;6.40;2.10;;;;;;;;;;5008677;28;20050;-71
2023/06/19 14:00:38;;;;;;;5.93;2.15;;;;;;;;;;5009345;28;20045;-71
2023/06/19 14:03:06;;;;;;;4.82;1.70;;;;;;;;;;5005580;28;20029;-72
2023/06/19 14:05:32;;;;;;;6.40;2.08;;;;;;;;;;5009133;28;20060;-72
2023/06/19 14:07:58;;;;;;;3.08;1.60;;;;;;;;;;5008224;28;20135;-72
2023/06/19 14:10:23;;;;;;;4.22;1.58;;;;;;;;;;5007601;28;21507;-72
2023/06/19 14:12:49;;;;;;;5.38;1.50;;;;;;;;;;5008199;28;20041;-72
2023/06/19 14:15:14;;;;;;;7.55;1.58;;;;;;;;;;5008363;28;20040;-72
2023/06/19 14:17:41;;;;;;;9.02;2.00;;;;;;;;;;5008750;28;20474;-72
2023/06/19 14:20:07;;;;;;;4.07;1.50;;;;;;;;;;5009260;28;20478;-72
2023/06/19 14:22:32;;;;;;;4.57;1.58;;;;;;;;;;5009132;28;20050;-72
2023/06/19 14:24:59;;;;;;;6.22;1.60;;;;;;;;;;5009452;28;20432;-72
2023/06/19 14:27:25;;;;;;;3.67;1.90;;;;;;;;;;5009247;28;20120;-71
2023/06/19 14:29:53;;;;;;;6.20;1.77;;;;;;;;;;5009229;28;20045;-71
2023/06/19 14:32:18;;;;;;;4.30;1.65;;;;;;;;;;5003579;28;20034;-71